sensor_id;sensor_type;location;lat;lon;timestamp;P1;durP1;ratioP1;P2;durP2;ratioP2
67378;SDS011;54262;44.642;-0.974;2022-12-29T00:01:23;4.80;;;4.40;;
67378;SDS011;54262;44.642;-0.974;2022-12-29T00:03:49;6.25;;;3.40;;
67378;SDS011;54262;44.642;-0.974;2022-12-29T00:06:15;4.57;;;4.20;;
67378;SDS011;54262;44.642;-0.974;2022-12-29T00:08:41;5.65;;;3.75;;
67378;SDS011;54262;44.642;-0.974;2022-12-29T00:11:08;8.02;;;4.00;;
67378;SDS011;54262;44.642;-0.974;2022-12-29T00:13:34;3.92;;;3.63;;
67378;SDS011;54262;44.642;-0.974;2022-12-29T00:16:19;3.85;;;3.47;;
67378;SDS011;54262;44.642;-0.974;2022-12-29T00:18:45;3.92;;;3.63;;
67378;SDS011;54262;44.642;-0.974;2022-12-29T00:21:15;4.60;;;3.90;;
67378;SDS011;54262;44.642;-0.974;2022-12-29T00:24:00;5.60;;;3.30;;
67378;SDS011;54262;44.642;-0.974;2022-12-29T00:26:45;4.32;;;3.25;;
67378;SDS011;54262;44.642;-0.974;2022-12-29T00:29:51;3.67;;;3.38;;
67378;SDS011;54262;44.642;-0.974;2022-12-29T00:32:35;3.53;;;3.22;;
67378;SDS011;54262;44.642;-0.974;2022-12-29T00:37:49;3.30;;;3.00;;
67378;SDS011;54262;44.642;-0.974;2022-12-29T00:40:33;4.22;;;3.67;;
67378;SDS011;54262;44.642;-0.974;2022-12-29T00:43:18;3.97;;;3.58;;
67378;SDS011;54262;44.642;-0.974;2022-12-29T00:48:28;4.50;;;3.22;;
67378;SDS011;54262;44.642;-0.974;2022-12-29T00:51:13;3.33;;;3.13;;
67378;SDS011;54262;44.642;-0.974;2022-12-29T00:53:39;4.70;;;3.33;;
67378;SDS011;54262;44.642;-0.974;2022-12-29T00:56:05;5.13;;;3.33;;
67378;SDS011;54262;44.642;-0.974;2022-12-29T00:58:31;3.80;;;3.50;;
67378;SDS011;54262;44.642;-0.974;2022-12-29T01:01:03;3.85;;;3.55;;
67378;SDS011;54262;44.642;-0.974;2022-12-29T01:03:30;3.80;;;3.50;;
67378;SDS011;54262;44.642;-0.974;2022-12-29T01:05:56;3.10;;;2.90;;
67378;SDS011;54262;44.642;-0.974;2022-12-29T01:08:22;3.45;;;2.92;;
67378;SDS011;54262;44.642;-0.974;2022-12-29T01:10:57;5.78;;;3.60;;
67378;SDS011;54262;44.642;-0.974;2022-12-29T01:13:23;3.58;;;2.97;;
67378;SDS011;54262;44.642;-0.974;2022-12-29T01:15:50;4.35;;;2.80;;
67378;SDS011;54262;44.642;-0.974;2022-12-29T01:18:16;3.13;;;2.72;;
67378;SDS011;54262;44.642;-0.974;2022-12-29T01:20:42;3.17;;;2.97;;
67378;SDS011;54262;44.642;-0.974;2022-12-29T01:23:08;6.25;;;3.35;;
67378;SDS011;54262;44.642;-0.974;2022-12-29T01:25:34;2.78;;;2.50;;
67378;SDS011;54262;44.642;-0.974;2022-12-29T01:28:00;3.80;;;3.58;;
67378;SDS011;54262;44.642;-0.974;2022-12-29T01:30:26;4.78;;;3.10;;
67378;SDS011;54262;44.642;-0.974;2022-12-29T01:32:52;3.38;;;3.08;;
67378;SDS011;54262;44.642;-0.974;2022-12-29T01:35:18;4.05;;;2.92;;
67378;SDS011;54262;44.642;-0.974;2022-12-29T01:37:44;3.78;;;2.90;;
67378;SDS011;54262;44.642;-0.974;2022-12-29T01:40:10;3.35;;;3.15;;
67378;SDS011;54262;44.642;-0.974;2022-12-29T01:42:36;6.25;;;3.28;;
67378;SDS011;54262;44.642;-0.974;2022-12-29T01:45:12;3.67;;;3.38;;
67378;SDS011;54262;44.642;-0.974;2022-12-29T01:47:57;3.05;;;2.65;;
67378;SDS011;54262;44.642;-0.974;2022-12-29T01:50:26;3.08;;;2.88;;
67378;SDS011;54262;44.642;-0.974;2022-12-29T01:52:56;3.38;;;3.08;;
67378;SDS011;54262;44.642;-0.974;2022-12-29T01:55:23;3.47;;;2.92;;
67378;SDS011;54262;44.642;-0.974;2022-12-29T01:57:50;3.15;;;2.85;;
67378;SDS011;54262;44.642;-0.974;2022-12-29T02:00:17;3.03;;;2.83;;
67378;SDS011;54262;44.642;-0.974;2022-12-29T02:02:53;3.17;;;2.92;;
67378;SDS011;54262;44.642;-0.974;2022-12-29T02:07:45;8.45;;;3.05;;
67378;SDS011;54262;44.642;-0.974;2022-12-29T02:10:12;3.92;;;3.25;;
67378;SDS011;54262;44.642;-0.974;2022-12-29T02:12:38;4.93;;;3.08;;
67378;SDS011;54262;44.642;-0.974;2022-12-29T02:15:05;4.65;;;3.05;;
67378;SDS011;54262;44.642;-0.974;2022-12-29T02:17:53;3.22;;;2.92;;
67378;SDS011;54262;44.642;-0.974;2022-12-29T02:36:14;17.58;;;4.80;;
67378;SDS011;54262;44.642;-0.974;2022-12-29T02:41:24;4.20;;;3.13;;
67378;SDS011;54262;44.642;-0.974;2022-12-29T02:46:29;6.70;;;3.38;;
67378;SDS011;54262;44.642;-0.974;2022-12-29T02:49:03;11.93;;;3.20;;
67378;SDS011;54262;44.642;-0.974;2022-12-29T02:51:31;4.47;;;3.00;;
67378;SDS011;54262;44.642;-0.974;2022-12-29T02:53:58;3.85;;;3.08;;
67378;SDS011;54262;44.642;-0.974;2022-12-29T02:56:43;9.52;;;3.40;;
67378;SDS011;54262;44.642;-0.974;2022-12-29T02:59:09;3.45;;;2.97;;
67378;SDS011;54262;44.642;-0.974;2022-12-29T03:07:12;4.75;;;2.67;;
67378;SDS011;54262;44.642;-0.974;2022-12-29T03:16:03;3.03;;;2.83;;
67378;SDS011;54262;44.642;-0.974;2022-12-29T03:18:34;2.60;;;2.40;;
67378;SDS011;54262;44.642;-0.974;2022-12-29T03:21:02;3.38;;;2.92;;
67378;SDS011;54262;44.642;-0.974;2022-12-29T03:23:29;3.95;;;2.83;;
67378;SDS011;54262;44.642;-0.974;2022-12-29T03:25:57;4.47;;;2.78;;
67378;SDS011;54262;44.642;-0.974;2022-12-29T03:31:22;2.83;;;2.60;;
67378;SDS011;54262;44.642;-0.974;2022-12-29T03:33:49;2.70;;;2.47;;
67378;SDS011;54262;44.642;-0.974;2022-12-29T03:36:17;3.03;;;2.58;;
67378;SDS011;54262;44.642;-0.974;2022-12-29T03:38:48;3.20;;;2.90;;
67378;SDS011;54262;44.642;-0.974;2022-12-29T03:41:17;3.05;;;2.58;;
67378;SDS011;54262;44.642;-0.974;2022-12-29T03:43:45;3.17;;;2.95;;
67378;SDS011;54262;44.642;-0.974;2022-12-29T03:46:11;3.80;;;2.75;;
67378;SDS011;54262;44.642;-0.974;2022-12-29T03:48:37;7.72;;;2.50;;
67378;SDS011;54262;44.642;-0.974;2022-12-29T03:51:03;9.40;;;2.53;;
67378;SDS011;54262;44.642;-0.974;2022-12-29T03:53:29;3.83;;;2.78;;
67378;SDS011;54262;44.642;-0.974;2022-12-29T03:55:55;3.25;;;2.63;;
67378;SDS011;54262;44.642;-0.974;2022-12-29T03:58:21;2.38;;;2.17;;
67378;SDS011;54262;44.642;-0.974;2022-12-29T04:00:47;2.25;;;2.05;;
67378;SDS011;54262;44.642;-0.974;2022-12-29T04:03:13;2.47;;;2.28;;
67378;SDS011;54262;44.642;-0.974;2022-12-29T04:05:39;2.80;;;2.40;;
67378;SDS011;54262;44.642;-0.974;2022-12-29T04:08:05;2.67;;;2.47;;
67378;SDS011;54262;44.642;-0.974;2022-12-29T04:10:31;2.65;;;1.95;;
67378;SDS011;54262;44.642;-0.974;2022-12-29T04:12:57;5.53;;;2.33;;
67378;SDS011;54262;44.642;-0.974;2022-12-29T04:15:23;2.13;;;1.95;;
67378;SDS011;54262;44.642;-0.974;2022-12-29T04:17:51;3.55;;;1.80;;
67378;SDS011;54262;44.642;-0.974;2022-12-29T04:20:17;4.07;;;2.03;;
67378;SDS011;54262;44.642;-0.974;2022-12-29T04:23:05;3.05;;;1.92;;
67378;SDS011;54262;44.642;-0.974;2022-12-29T04:25:32;2.88;;;1.52;;
67378;SDS011;54262;44.642;-0.974;2022-12-29T04:27:58;2.22;;;1.75;;
67378;SDS011;54262;44.642;-0.974;2022-12-29T04:30:24;2.92;;;1.70;;
67378;SDS011;54262;44.642;-0.974;2022-12-29T04:32:50;2.33;;;1.80;;
67378;SDS011;54262;44.642;-0.974;2022-12-29T04:35:16;3.13;;;1.88;;
67378;SDS011;54262;44.642;-0.974;2022-12-29T04:37:42;3.58;;;2.10;;
67378;SDS011;54262;44.642;-0.974;2022-12-29T04:40:08;3.10;;;1.63;;
67378;SDS011;54262;44.642;-0.974;2022-12-29T04:42:34;2.30;;;1.80;;
67378;SDS011;54262;44.642;-0.974;2022-12-29T04:45:00;2.65;;;2.00;;
67378;SDS011;54262;44.642;-0.974;2022-12-29T04:47:26;3.13;;;1.58;;
67378;SDS011;54262;44.642;-0.974;2022-12-29T04:49:52;2.83;;;2.13;;
67378;SDS011;54262;44.642;-0.974;2022-12-29T04:52:18;2.45;;;2.20;;
67378;SDS011;54262;44.642;-0.974;2022-12-29T04:54:44;2.50;;;1.80;;
67378;SDS011;54262;44.642;-0.974;2022-12-29T04:57:10;2.63;;;2.00;;
67378;SDS011;54262;44.642;-0.974;2022-12-29T04:59:36;1.73;;;1.38;;
67378;SDS011;54262;44.642;-0.974;2022-12-29T05:02:02;2.63;;;1.90;;
67378;SDS011;54262;44.642;-0.974;2022-12-29T05:04:28;1.85;;;1.67;;
67378;SDS011;54262;44.642;-0.974;2022-12-29T05:06:54;2.08;;;1.70;;
67378;SDS011;54262;44.642;-0.974;2022-12-29T05:09:20;2.90;;;1.88;;
67378;SDS011;54262;44.642;-0.974;2022-12-29T05:11:46;2.50;;;1.52;;
67378;SDS011;54262;44.642;-0.974;2022-12-29T05:14:12;3.22;;;1.73;;
67378;SDS011;54262;44.642;-0.974;2022-12-29T05:16:38;3.28;;;2.13;;
67378;SDS011;54262;44.642;-0.974;2022-12-29T05:19:04;4.57;;;1.70;;
67378;SDS011;54262;44.642;-0.974;2022-12-29T05:21:30;4.55;;;2.30;;
67378;SDS011;54262;44.642;-0.974;2022-12-29T05:23:56;1.83;;;1.55;;
67378;SDS011;54262;44.642;-0.974;2022-12-29T05:26:22;2.55;;;1.38;;
67378;SDS011;54262;44.642;-0.974;2022-12-29T05:28:48;4.38;;;1.63;;
67378;SDS011;54262;44.642;-0.974;2022-12-29T05:31:14;2.28;;;1.58;;
67378;SDS011;54262;44.642;-0.974;2022-12-29T05:33:40;3.88;;;2.20;;
67378;SDS011;54262;44.642;-0.974;2022-12-29T05:36:07;3.70;;;1.70;;
67378;SDS011;54262;44.642;-0.974;2022-12-29T05:38:33;2.20;;;1.95;;
67378;SDS011;54262;44.642;-0.974;2022-12-29T05:40:59;3.53;;;1.70;;
67378;SDS011;54262;44.642;-0.974;2022-12-29T05:43:26;3.10;;;1.67;;
67378;SDS011;54262;44.642;-0.974;2022-12-29T05:45:52;2.55;;;1.77;;
67378;SDS011;54262;44.642;-0.974;2022-12-29T05:48:18;2.92;;;1.67;;
67378;SDS011;54262;44.642;-0.974;2022-12-29T05:50:48;2.17;;;1.63;;
67378;SDS011;54262;44.642;-0.974;2022-12-29T05:53:14;2.28;;;1.50;;
67378;SDS011;54262;44.642;-0.974;2022-12-29T05:55:40;2.80;;;1.80;;
67378;SDS011;54262;44.642;-0.974;2022-12-29T05:58:06;2.03;;;1.75;;
67378;SDS011;54262;44.642;-0.974;2022-12-29T06:00:32;3.33;;;1.95;;
67378;SDS011;54262;44.642;-0.974;2022-12-29T06:02:58;2.78;;;1.88;;
67378;SDS011;54262;44.642;-0.974;2022-12-29T06:05:24;3.08;;;1.60;;
67378;SDS011;54262;44.642;-0.974;2022-12-29T06:07:50;3.17;;;1.80;;
67378;SDS011;54262;44.642;-0.974;2022-12-29T06:10:16;6.43;;;2.13;;
67378;SDS011;54262;44.642;-0.974;2022-12-29T06:12:42;4.57;;;2.33;;
67378;SDS011;54262;44.642;-0.974;2022-12-29T06:15:09;2.42;;;1.58;;
67378;SDS011;54262;44.642;-0.974;2022-12-29T06:17:35;3.63;;;1.95;;
67378;SDS011;54262;44.642;-0.974;2022-12-29T06:20:01;2.58;;;2.20;;
67378;SDS011;54262;44.642;-0.974;2022-12-29T06:22:27;2.17;;;1.77;;
67378;SDS011;54262;44.642;-0.974;2022-12-29T06:24:53;3.15;;;2.00;;
67378;SDS011;54262;44.642;-0.974;2022-12-29T06:27:20;1.98;;;1.40;;
67378;SDS011;54262;44.642;-0.974;2022-12-29T06:29:46;3.20;;;2.28;;
67378;SDS011;54262;44.642;-0.974;2022-12-29T06:32:12;3.38;;;2.00;;
67378;SDS011;54262;44.642;-0.974;2022-12-29T06:34:38;3.63;;;2.53;;
67378;SDS011;54262;44.642;-0.974;2022-12-29T06:37:04;3.35;;;2.17;;
67378;SDS011;54262;44.642;-0.974;2022-12-29T06:39:30;9.57;;;2.55;;
67378;SDS011;54262;44.642;-0.974;2022-12-29T06:41:56;5.00;;;2.80;;
67378;SDS011;54262;44.642;-0.974;2022-12-29T06:44:22;2.88;;;2.17;;
67378;SDS011;54262;44.642;-0.974;2022-12-29T06:46:48;3.28;;;1.95;;
67378;SDS011;54262;44.642;-0.974;2022-12-29T06:49:15;5.10;;;2.13;;
67378;SDS011;54262;44.642;-0.974;2022-12-29T06:51:41;3.50;;;2.53;;
67378;SDS011;54262;44.642;-0.974;2022-12-29T06:54:07;2.58;;;1.83;;
67378;SDS011;54262;44.642;-0.974;2022-12-29T06:56:33;3.05;;;1.95;;
67378;SDS011;54262;44.642;-0.974;2022-12-29T06:58:59;2.97;;;2.08;;
67378;SDS011;54262;44.642;-0.974;2022-12-29T07:01:26;4.13;;;2.20;;
67378;SDS011;54262;44.642;-0.974;2022-12-29T07:03:52;2.00;;;1.60;;
67378;SDS011;54262;44.642;-0.974;2022-12-29T07:06:18;2.45;;;1.80;;
67378;SDS011;54262;44.642;-0.974;2022-12-29T07:08:44;4.15;;;2.20;;
67378;SDS011;54262;44.642;-0.974;2022-12-29T07:11:10;4.78;;;2.50;;
67378;SDS011;54262;44.642;-0.974;2022-12-29T07:13:36;2.55;;;2.08;;
67378;SDS011;54262;44.642;-0.974;2022-12-29T07:16:06;2.38;;;2.10;;
67378;SDS011;54262;44.642;-0.974;2022-12-29T07:18:32;3.35;;;1.88;;
67378;SDS011;54262;44.642;-0.974;2022-12-29T07:20:58;3.05;;;2.05;;
67378;SDS011;54262;44.642;-0.974;2022-12-29T07:23:24;4.22;;;2.72;;
67378;SDS011;54262;44.642;-0.974;2022-12-29T07:25:50;3.45;;;1.63;;
67378;SDS011;54262;44.642;-0.974;2022-12-29T07:28:16;2.55;;;1.80;;
67378;SDS011;54262;44.642;-0.974;2022-12-29T07:30:42;3.78;;;2.28;;
67378;SDS011;54262;44.642;-0.974;2022-12-29T07:33:08;2.92;;;1.80;;
67378;SDS011;54262;44.642;-0.974;2022-12-29T07:35:34;3.20;;;2.08;;
67378;SDS011;54262;44.642;-0.974;2022-12-29T07:38:00;1.95;;;1.48;;
67378;SDS011;54262;44.642;-0.974;2022-12-29T07:40:26;2.78;;;2.42;;
67378;SDS011;54262;44.642;-0.974;2022-12-29T07:42:52;4.85;;;1.92;;
67378;SDS011;54262;44.642;-0.974;2022-12-29T07:45:18;2.40;;;2.00;;
67378;SDS011;54262;44.642;-0.974;2022-12-29T07:47:47;6.15;;;4.28;;
67378;SDS011;54262;44.642;-0.974;2022-12-29T07:50:13;15.35;;;7.75;;
67378;SDS011;54262;44.642;-0.974;2022-12-29T07:52:39;31.60;;;10.55;;
67378;SDS011;54262;44.642;-0.974;2022-12-29T07:55:05;3.25;;;2.95;;
67378;SDS011;54262;44.642;-0.974;2022-12-29T07:57:31;29.38;;;10.88;;
67378;SDS011;54262;44.642;-0.974;2022-12-29T07:59:57;4.95;;;3.60;;
67378;SDS011;54262;44.642;-0.974;2022-12-29T08:02:23;9.57;;;3.80;;
67378;SDS011;54262;44.642;-0.974;2022-12-29T08:04:51;4.88;;;3.67;;
67378;SDS011;54262;44.642;-0.974;2022-12-29T08:07:17;3.53;;;2.80;;
67378;SDS011;54262;44.642;-0.974;2022-12-29T08:09:43;3.97;;;2.63;;
67378;SDS011;54262;44.642;-0.974;2022-12-29T08:12:10;5.15;;;2.78;;
67378;SDS011;54262;44.642;-0.974;2022-12-29T08:14:36;6.05;;;3.47;;
67378;SDS011;54262;44.642;-0.974;2022-12-29T08:17:02;3.33;;;2.60;;
67378;SDS011;54262;44.642;-0.974;2022-12-29T08:19:28;4.18;;;2.65;;
67378;SDS011;54262;44.642;-0.974;2022-12-29T08:21:54;4.70;;;2.92;;
67378;SDS011;54262;44.642;-0.974;2022-12-29T08:24:20;4.03;;;3.08;;
67378;SDS011;54262;44.642;-0.974;2022-12-29T08:26:46;5.43;;;2.63;;
67378;SDS011;54262;44.642;-0.974;2022-12-29T08:29:12;6.05;;;3.45;;
67378;SDS011;54262;44.642;-0.974;2022-12-29T08:31:38;3.33;;;2.78;;
67378;SDS011;54262;44.642;-0.974;2022-12-29T08:34:04;5.22;;;3.00;;
67378;SDS011;54262;44.642;-0.974;2022-12-29T08:36:30;5.72;;;2.75;;
67378;SDS011;54262;44.642;-0.974;2022-12-29T08:38:57;5.57;;;2.72;;
67378;SDS011;54262;44.642;-0.974;2022-12-29T08:41:23;2.80;;;2.60;;
67378;SDS011;54262;44.642;-0.974;2022-12-29T08:43:49;4.57;;;3.25;;
67378;SDS011;54262;44.642;-0.974;2022-12-29T08:46:15;2.95;;;2.65;;
67378;SDS011;54262;44.642;-0.974;2022-12-29T08:48:42;3.33;;;2.70;;
67378;SDS011;54262;44.642;-0.974;2022-12-29T08:51:08;3.65;;;2.53;;
67378;SDS011;54262;44.642;-0.974;2022-12-29T08:53:34;4.68;;;2.83;;
67378;SDS011;54262;44.642;-0.974;2022-12-29T08:56:00;3.67;;;2.60;;
67378;SDS011;54262;44.642;-0.974;2022-12-29T08:58:26;4.03;;;2.78;;
67378;SDS011;54262;44.642;-0.974;2022-12-29T09:00:53;6.53;;;2.47;;
67378;SDS011;54262;44.642;-0.974;2022-12-29T09:03:19;6.45;;;2.75;;
67378;SDS011;54262;44.642;-0.974;2022-12-29T09:05:48;4.80;;;2.33;;
67378;SDS011;54262;44.642;-0.974;2022-12-29T09:08:15;4.57;;;2.80;;
67378;SDS011;54262;44.642;-0.974;2022-12-29T09:10:41;5.35;;;2.80;;
67378;SDS011;54262;44.642;-0.974;2022-12-29T09:13:07;6.82;;;2.88;;
67378;SDS011;54262;44.642;-0.974;2022-12-29T09:15:33;9.43;;;2.92;;
67378;SDS011;54262;44.642;-0.974;2022-12-29T09:17:59;4.57;;;2.88;;
67378;SDS011;54262;44.642;-0.974;2022-12-29T09:20:25;4.82;;;2.25;;
67378;SDS011;54262;44.642;-0.974;2022-12-29T09:22:51;3.92;;;3.00;;
67378;SDS011;54262;44.642;-0.974;2022-12-29T09:25:17;5.32;;;2.90;;
67378;SDS011;54262;44.642;-0.974;2022-12-29T09:27:43;2.60;;;2.30;;
67378;SDS011;54262;44.642;-0.974;2022-12-29T09:30:10;5.80;;;4.40;;
67378;SDS011;54262;44.642;-0.974;2022-12-29T09:32:37;4.65;;;4.25;;
67378;SDS011;54262;44.642;-0.974;2022-12-29T09:35:03;3.67;;;3.38;;
67378;SDS011;54262;44.642;-0.974;2022-12-29T09:37:32;4.10;;;2.95;;
67378;SDS011;54262;44.642;-0.974;2022-12-29T09:39:58;3.25;;;2.95;;
67378;SDS011;54262;44.642;-0.974;2022-12-29T09:47:19;3.25;;;2.50;;
67378;SDS011;54262;44.642;-0.974;2022-12-29T09:52:20;4.55;;;1.90;;
67378;SDS011;54262;44.642;-0.974;2022-12-29T09:54:54;2.30;;;2.10;;
67378;SDS011;54262;44.642;-0.974;2022-12-29T09:57:25;3.25;;;2.08;;
67378;SDS011;54262;44.642;-0.974;2022-12-29T10:00:36;3.60;;;2.80;;
67378;SDS011;54262;44.642;-0.974;2022-12-29T10:02:53;2.65;;;2.45;;
67378;SDS011;54262;44.642;-0.974;2022-12-29T10:08:02;2.15;;;1.92;;
67378;SDS011;54262;44.642;-0.974;2022-12-29T10:10:33;3.10;;;2.10;;
67378;SDS011;54262;44.642;-0.974;2022-12-29T10:13:16;2.95;;;2.13;;
67378;SDS011;54262;44.642;-0.974;2022-12-29T10:18:14;4.65;;;2.13;;
67378;SDS011;54262;44.642;-0.974;2022-12-29T10:25:38;2.47;;;1.92;;
67378;SDS011;54262;44.642;-0.974;2022-12-29T10:28:06;2.03;;;1.70;;
67378;SDS011;54262;44.642;-0.974;2022-12-29T10:30:36;2.47;;;2.00;;
67378;SDS011;54262;44.642;-0.974;2022-12-29T10:33:04;2.50;;;1.92;;
67378;SDS011;54262;44.642;-0.974;2022-12-29T10:35:32;5.85;;;1.83;;
67378;SDS011;54262;44.642;-0.974;2022-12-29T10:40:33;5.63;;;2.20;;
67378;SDS011;54262;44.642;-0.974;2022-12-29T10:43:01;2.55;;;1.85;;
67378;SDS011;54262;44.642;-0.974;2022-12-29T10:45:31;2.58;;;2.03;;
67378;SDS011;54262;44.642;-0.974;2022-12-29T10:50:25;3.20;;;1.92;;
67378;SDS011;54262;44.642;-0.974;2022-12-29T10:52:52;2.63;;;2.13;;
67378;SDS011;54262;44.642;-0.974;2022-12-29T10:55:21;2.42;;;1.77;;
67378;SDS011;54262;44.642;-0.974;2022-12-29T10:57:48;3.40;;;1.77;;
67378;SDS011;54262;44.642;-0.974;2022-12-29T11:00:20;2.03;;;1.50;;
67378;SDS011;54262;44.642;-0.974;2022-12-29T11:05:49;2.25;;;1.55;;
67378;SDS011;54262;44.642;-0.974;2022-12-29T11:08:15;1.83;;;1.50;;
67378;SDS011;54262;44.642;-0.974;2022-12-29T11:10:44;2.00;;;1.70;;
67378;SDS011;54262;44.642;-0.974;2022-12-29T11:15:39;3.17;;;1.60;;
67378;SDS011;54262;44.642;-0.974;2022-12-29T11:18:07;1.77;;;1.27;;
67378;SDS011;54262;44.642;-0.974;2022-12-29T11:20:42;1.30;;;1.17;;
67378;SDS011;54262;44.642;-0.974;2022-12-29T11:23:41;3.13;;;1.45;;
67378;SDS011;54262;44.642;-0.974;2022-12-29T11:28:32;2.22;;;1.55;;
67378;SDS011;54262;44.642;-0.974;2022-12-29T11:31:00;3.08;;;1.63;;
67378;SDS011;54262;44.642;-0.974;2022-12-29T11:33:27;1.17;;;1.00;;
67378;SDS011;54262;44.642;-0.974;2022-12-29T11:35:57;1.92;;;1.73;;
67378;SDS011;54262;44.642;-0.974;2022-12-29T11:38:25;2.28;;;1.50;;
67378;SDS011;54262;44.642;-0.974;2022-12-29T11:40:51;1.77;;;1.40;;
67378;SDS011;54262;44.642;-0.974;2022-12-29T11:43:26;2.38;;;1.45;;
67378;SDS011;54262;44.642;-0.974;2022-12-29T11:45:54;2.00;;;1.35;;
67378;SDS011;54262;44.642;-0.974;2022-12-29T11:48:21;1.60;;;0.95;;
67378;SDS011;54262;44.642;-0.974;2022-12-29T11:50:50;2.72;;;1.50;;
67378;SDS011;54262;44.642;-0.974;2022-12-29T11:53:58;1.67;;;1.40;;
67378;SDS011;54262;44.642;-0.974;2022-12-29T11:56:06;1.50;;;1.40;;
67378;SDS011;54262;44.642;-0.974;2022-12-29T11:58:35;2.03;;;1.60;;
67378;SDS011;54262;44.642;-0.974;2022-12-29T12:01:05;2.13;;;1.40;;
67378;SDS011;54262;44.642;-0.974;2022-12-29T12:03:32;1.70;;;1.30;;
67378;SDS011;54262;44.642;-0.974;2022-12-29T12:06:01;1.75;;;1.40;;
67378;SDS011;54262;44.642;-0.974;2022-12-29T12:11:12;2.25;;;1.35;;
67378;SDS011;54262;44.642;-0.974;2022-12-29T12:16:39;1.95;;;1.35;;
67378;SDS011;54262;44.642;-0.974;2022-12-29T12:21:53;4.20;;;1.30;;
67378;SDS011;54262;44.642;-0.974;2022-12-29T12:26:58;1.58;;;1.08;;
67378;SDS011;54262;44.642;-0.974;2022-12-29T12:29:28;1.90;;;1.20;;
67378;SDS011;54262;44.642;-0.974;2022-12-29T12:32:02;2.67;;;1.40;;
67378;SDS011;54262;44.642;-0.974;2022-12-29T12:34:35;1.13;;;0.93;;
67378;SDS011;54262;44.642;-0.974;2022-12-29T12:37:17;0.98;;;0.75;;
67378;SDS011;54262;44.642;-0.974;2022-12-29T12:39:47;1.23;;;1.02;;
67378;SDS011;54262;44.642;-0.974;2022-12-29T12:42:32;1.60;;;1.33;;
67378;SDS011;54262;44.642;-0.974;2022-12-29T13:00:14;2.78;;;2.58;;
67378;SDS011;54262;44.642;-0.974;2022-12-29T13:05:31;2.60;;;1.45;;
67378;SDS011;54262;44.642;-0.974;2022-12-29T13:18:05;1.70;;;1.10;;
67378;SDS011;54262;44.642;-0.974;2022-12-29T13:20:41;1.35;;;1.00;;
67378;SDS011;54262;44.642;-0.974;2022-12-29T13:28:11;1.20;;;1.10;;
67378;SDS011;54262;44.642;-0.974;2022-12-29T13:33:23;1.33;;;1.13;;
67378;SDS011;54262;44.642;-0.974;2022-12-29T13:36:00;1.20;;;0.93;;
67378;SDS011;54262;44.642;-0.974;2022-12-29T13:38:44;1.73;;;1.30;;
67378;SDS011;54262;44.642;-0.974;2022-12-29T13:41:13;1.23;;;1.13;;
67378;SDS011;54262;44.642;-0.974;2022-12-29T13:43:40;1.42;;;1.27;;
67378;SDS011;54262;44.642;-0.974;2022-12-29T13:46:12;1.90;;;1.23;;
67378;SDS011;54262;44.642;-0.974;2022-12-29T13:48:42;1.27;;;1.00;;
67378;SDS011;54262;44.642;-0.974;2022-12-29T13:51:09;1.45;;;1.10;;
67378;SDS011;54262;44.642;-0.974;2022-12-29T13:54:39;2.05;;;1.20;;
67378;SDS011;54262;44.642;-0.974;2022-12-29T13:56:34;1.38;;;1.08;;
67378;SDS011;54262;44.642;-0.974;2022-12-29T14:04:25;1.70;;;1.20;;
67378;SDS011;54262;44.642;-0.974;2022-12-29T14:07:04;1.65;;;1.52;;
67378;SDS011;54262;44.642;-0.974;2022-12-29T14:11:59;1.80;;;0.77;;
67378;SDS011;54262;44.642;-0.974;2022-12-29T14:14:27;1.92;;;0.95;;
67378;SDS011;54262;44.642;-0.974;2022-12-29T14:16:54;1.10;;;1.00;;
67378;SDS011;54262;44.642;-0.974;2022-12-29T14:19:26;1.33;;;1.00;;
67378;SDS011;54262;44.642;-0.974;2022-12-29T14:21:53;3.55;;;1.35;;
67378;SDS011;54262;44.642;-0.974;2022-12-29T14:24:27;2.75;;;1.27;;
67378;SDS011;54262;44.642;-0.974;2022-12-29T14:26:53;1.58;;;1.20;;
67378;SDS011;54262;44.642;-0.974;2022-12-29T14:31:54;1.73;;;1.52;;
67378;SDS011;54262;44.642;-0.974;2022-12-29T14:36:54;1.58;;;1.13;;
67378;SDS011;54262;44.642;-0.974;2022-12-29T14:41:59;1.65;;;1.02;;
67378;SDS011;54262;44.642;-0.974;2022-12-29T14:44:26;1.33;;;1.20;;
67378;SDS011;54262;44.642;-0.974;2022-12-29T14:49:22;2.03;;;1.08;;
67378;SDS011;54262;44.642;-0.974;2022-12-29T14:51:51;2.15;;;1.13;;
67378;SDS011;54262;44.642;-0.974;2022-12-29T14:54:52;1.25;;;1.13;;
67378;SDS011;54262;44.642;-0.974;2022-12-29T14:57:14;1.60;;;1.40;;
67378;SDS011;54262;44.642;-0.974;2022-12-29T14:59:41;1.58;;;1.17;;
67378;SDS011;54262;44.642;-0.974;2022-12-29T15:02:44;1.48;;;1.38;;
67378;SDS011;54262;44.642;-0.974;2022-12-29T15:05:03;3.30;;;1.13;;
67378;SDS011;54262;44.642;-0.974;2022-12-29T15:07:30;1.73;;;1.27;;
67378;SDS011;54262;44.642;-0.974;2022-12-29T15:10:03;3.58;;;1.30;;
67378;SDS011;54262;44.642;-0.974;2022-12-29T15:12:33;1.20;;;1.10;;
67378;SDS011;54262;44.642;-0.974;2022-12-29T15:15:02;1.23;;;0.82;;
67378;SDS011;54262;44.642;-0.974;2022-12-29T15:17:29;3.33;;;1.48;;
67378;SDS011;54262;44.642;-0.974;2022-12-29T15:19:57;1.90;;;1.10;;
67378;SDS011;54262;44.642;-0.974;2022-12-29T15:22:23;2.00;;;1.20;;
67378;SDS011;54262;44.642;-0.974;2022-12-29T15:24:49;1.60;;;1.23;;
67378;SDS011;54262;44.642;-0.974;2022-12-29T15:27:19;2.33;;;1.08;;
67378;SDS011;54262;44.642;-0.974;2022-12-29T15:29:45;1.38;;;1.15;;
67378;SDS011;54262;44.642;-0.974;2022-12-29T15:34:40;3.35;;;1.63;;
67378;SDS011;54262;44.642;-0.974;2022-12-29T15:37:07;1.40;;;1.10;;
67378;SDS011;54262;44.642;-0.974;2022-12-29T15:39:33;2.80;;;1.40;;
67378;SDS011;54262;44.642;-0.974;2022-12-29T15:46:55;2.33;;;1.50;;
67378;SDS011;54262;44.642;-0.974;2022-12-29T15:49:21;4.00;;;1.88;;
67378;SDS011;54262;44.642;-0.974;2022-12-29T15:51:50;4.25;;;1.63;;
67378;SDS011;54262;44.642;-0.974;2022-12-29T15:54:16;3.88;;;1.25;;
67378;SDS011;54262;44.642;-0.974;2022-12-29T15:56:43;1.48;;;1.15;;
67378;SDS011;54262;44.642;-0.974;2022-12-29T16:01:54;3.40;;;1.08;;
67378;SDS011;54262;44.642;-0.974;2022-12-29T16:04:20;1.85;;;1.40;;
67378;SDS011;54262;44.642;-0.974;2022-12-29T16:06:54;1.95;;;1.65;;
67378;SDS011;54262;44.642;-0.974;2022-12-29T16:09:33;2.00;;;1.15;;
67378;SDS011;54262;44.642;-0.974;2022-12-29T16:12:03;3.15;;;1.02;;
67378;SDS011;54262;44.642;-0.974;2022-12-29T16:14:42;1.73;;;1.20;;
67378;SDS011;54262;44.642;-0.974;2022-12-29T16:17:12;2.30;;;1.40;;
67378;SDS011;54262;44.642;-0.974;2022-12-29T16:19:39;3.25;;;1.25;;
67378;SDS011;54262;44.642;-0.974;2022-12-29T16:22:17;2.17;;;1.58;;
67378;SDS011;54262;44.642;-0.974;2022-12-29T16:24:46;2.03;;;1.40;;
67378;SDS011;54262;44.642;-0.974;2022-12-29T16:27:19;1.83;;;1.25;;
67378;SDS011;54262;44.642;-0.974;2022-12-29T16:29:47;2.60;;;1.52;;
67378;SDS011;54262;44.642;-0.974;2022-12-29T16:35:00;1.23;;;1.00;;
67378;SDS011;54262;44.642;-0.974;2022-12-29T16:39:54;5.00;;;1.48;;
67378;SDS011;54262;44.642;-0.974;2022-12-29T16:45:04;1.40;;;1.08;;
67378;SDS011;54262;44.642;-0.974;2022-12-29T16:47:41;2.13;;;1.60;;
67378;SDS011;54262;44.642;-0.974;2022-12-29T16:50:11;2.88;;;1.30;;
67378;SDS011;54262;44.642;-0.974;2022-12-29T16:52:38;2.17;;;1.20;;
67378;SDS011;54262;44.642;-0.974;2022-12-29T16:55:04;4.05;;;2.03;;
67378;SDS011;54262;44.642;-0.974;2022-12-29T16:57:31;2.13;;;1.55;;
67378;SDS011;54262;44.642;-0.974;2022-12-29T16:59:59;2.42;;;1.38;;
67378;SDS011;54262;44.642;-0.974;2022-12-29T17:02:27;1.83;;;1.70;;
67378;SDS011;54262;44.642;-0.974;2022-12-29T17:04:53;2.13;;;1.52;;
67378;SDS011;54262;44.642;-0.974;2022-12-29T17:07:24;4.57;;;1.40;;
67378;SDS011;54262;44.642;-0.974;2022-12-29T17:09:50;4.63;;;1.50;;
67378;SDS011;54262;44.642;-0.974;2022-12-29T17:12:19;2.58;;;1.17;;
67378;SDS011;54262;44.642;-0.974;2022-12-29T17:14:51;2.10;;;1.60;;
67378;SDS011;54262;44.642;-0.974;2022-12-29T17:17:25;2.20;;;1.25;;
67378;SDS011;54262;44.642;-0.974;2022-12-29T17:19:54;3.58;;;1.98;;